sensor_id;sensor_type;location;lat;lon;timestamp;P1;durP1;ratioP1;P2;durP2;ratioP2
6832;SDS011;3454;42.654;23.378;2023-05-14T00:00:09;4.10;;;2.40;;
6832;SDS011;3454;42.654;23.378;2023-05-14T00:02:35;3.85;;;2.65;;
6832;SDS011;3454;42.654;23.378;2023-05-14T00:05:00;2.80;;;2.30;;
6832;SDS011;3454;42.654;23.378;2023-05-14T00:07:26;5.90;;;2.67;;
6832;SDS011;3454;42.654;23.378;2023-05-14T00:09:54;4.47;;;2.30;;
6832;SDS011;3454;42.654;23.378;2023-05-14T00:12:22;3.17;;;2.53;;
6832;SDS011;3454;42.654;23.378;2023-05-14T00:14:48;2.50;;;2.17;;
6832;SDS011;3454;42.654;23.378;2023-05-14T00:17:13;2.40;;;2.20;;
6832;SDS011;3454;42.654;23.378;2023-05-14T00:19:39;5.90;;;2.47;;
6832;SDS011;3454;42.654;23.378;2023-05-14T00:22:06;2.95;;;2.33;;
6832;SDS011;3454;42.654;23.378;2023-05-14T00:24:33;2.65;;;2.45;;
6832;SDS011;3454;42.654;23.378;2023-05-14T00:26:58;4.47;;;2.72;;
6832;SDS011;3454;42.654;23.378;2023-05-14T00:29:24;5.45;;;2.50;;
6832;SDS011;3454;42.654;23.378;2023-05-14T00:31:49;6.65;;;2.80;;
6832;SDS011;3454;42.654;23.378;2023-05-14T00:34:15;3.70;;;2.65;;
6832;SDS011;3454;42.654;23.378;2023-05-14T00:36:40;2.20;;;2.00;;
6832;SDS011;3454;42.654;23.378;2023-05-14T00:39:06;4.13;;;2.50;;
6832;SDS011;3454;42.654;23.378;2023-05-14T00:41:31;5.20;;;2.70;;
6832;SDS011;3454;42.654;23.378;2023-05-14T00:43:57;2.97;;;2.65;;
6832;SDS011;3454;42.654;23.378;2023-05-14T00:46:22;4.80;;;2.47;;
6832;SDS011;3454;42.654;23.378;2023-05-14T00:48:47;6.05;;;2.50;;
6832;SDS011;3454;42.654;23.378;2023-05-14T00:51:13;4.10;;;2.40;;
6832;SDS011;3454;42.654;23.378;2023-05-14T00:53:39;2.83;;;2.33;;
6832;SDS011;3454;42.654;23.378;2023-05-14T00:56:05;3.72;;;2.30;;
6832;SDS011;3454;42.654;23.378;2023-05-14T00:58:32;3.47;;;2.47;;
6832;SDS011;3454;42.654;23.378;2023-05-14T01:00:57;3.70;;;2.10;;
6832;SDS011;3454;42.654;23.378;2023-05-14T01:03:23;3.78;;;2.40;;
6832;SDS011;3454;42.654;23.378;2023-05-14T01:08:39;2.50;;;2.30;;
6832;SDS011;3454;42.654;23.378;2023-05-14T01:11:30;5.85;;;2.80;;
6832;SDS011;3454;42.654;23.378;2023-05-14T01:14:20;2.72;;;2.40;;
6832;SDS011;3454;42.654;23.378;2023-05-14T01:16:51;3.30;;;2.38;;
6832;SDS011;3454;42.654;23.378;2023-05-14T01:19:26;2.95;;;2.33;;
6832;SDS011;3454;42.654;23.378;2023-05-14T01:21:57;3.08;;;2.33;;
6832;SDS011;3454;42.654;23.378;2023-05-14T01:24:23;2.90;;;2.40;;
6832;SDS011;3454;42.654;23.378;2023-05-14T01:26:48;4.03;;;2.20;;
6832;SDS011;3454;42.654;23.378;2023-05-14T01:29:23;2.30;;;1.90;;
6832;SDS011;3454;42.654;23.378;2023-05-14T01:31:52;4.63;;;2.30;;
6832;SDS011;3454;42.654;23.378;2023-05-14T01:34:21;3.15;;;2.10;;
6832;SDS011;3454;42.654;23.378;2023-05-14T01:36:50;2.40;;;2.20;;
6832;SDS011;3454;42.654;23.378;2023-05-14T01:39:18;3.15;;;2.60;;
6832;SDS011;3454;42.654;23.378;2023-05-14T01:41:44;2.45;;;2.25;;
6832;SDS011;3454;42.654;23.378;2023-05-14T01:44:10;4.60;;;2.30;;
6832;SDS011;3454;42.654;23.378;2023-05-14T01:46:36;2.83;;;2.10;;
6832;SDS011;3454;42.654;23.378;2023-05-14T01:49:02;2.58;;;2.20;;
6832;SDS011;3454;42.654;23.378;2023-05-14T01:51:27;2.15;;;1.95;;
6832;SDS011;3454;42.654;23.378;2023-05-14T01:53:53;2.97;;;2.10;;
6832;SDS011;3454;42.654;23.378;2023-05-14T01:56:19;2.45;;;2.10;;
6832;SDS011;3454;42.654;23.378;2023-05-14T01:58:48;2.80;;;1.83;;
6832;SDS011;3454;42.654;23.378;2023-05-14T02:01:13;7.43;;;2.60;;
6832;SDS011;3454;42.654;23.378;2023-05-14T02:03:39;3.33;;;2.28;;
6832;SDS011;3454;42.654;23.378;2023-05-14T02:06:04;2.60;;;2.40;;
6832;SDS011;3454;42.654;23.378;2023-05-14T02:08:30;3.27;;;2.33;;
6832;SDS011;3454;42.654;23.378;2023-05-14T02:10:55;3.30;;;2.50;;
6832;SDS011;3454;42.654;23.378;2023-05-14T02:13:21;2.53;;;2.33;;
6832;SDS011;3454;42.654;23.378;2023-05-14T02:15:46;3.65;;;2.28;;
6832;SDS011;3454;42.654;23.378;2023-05-14T02:18:14;3.00;;;2.40;;
6832;SDS011;3454;42.654;23.378;2023-05-14T02:20:39;2.90;;;2.50;;
6832;SDS011;3454;42.654;23.378;2023-05-14T02:23:05;3.53;;;2.40;;
6832;SDS011;3454;42.654;23.378;2023-05-14T02:25:30;2.40;;;2.20;;
6832;SDS011;3454;42.654;23.378;2023-05-14T02:27:55;3.13;;;2.00;;
6832;SDS011;3454;42.654;23.378;2023-05-14T02:30:21;3.40;;;2.10;;
6832;SDS011;3454;42.654;23.378;2023-05-14T02:32:46;2.88;;;2.40;;
6832;SDS011;3454;42.654;23.378;2023-05-14T02:35:11;3.60;;;2.00;;
6832;SDS011;3454;42.654;23.378;2023-05-14T02:37:37;2.40;;;1.60;;
6832;SDS011;3454;42.654;23.378;2023-05-14T02:40:02;2.77;;;1.70;;
6832;SDS011;3454;42.654;23.378;2023-05-14T02:42:29;3.30;;;2.42;;
6832;SDS011;3454;42.654;23.378;2023-05-14T02:44:54;2.53;;;1.73;;
6832;SDS011;3454;42.654;23.378;2023-05-14T02:47:19;2.67;;;2.20;;
6832;SDS011;3454;42.654;23.378;2023-05-14T02:49:45;2.20;;;2.00;;
6832;SDS011;3454;42.654;23.378;2023-05-14T02:52:10;2.03;;;1.83;;
6832;SDS011;3454;42.654;23.378;2023-05-14T02:54:36;2.70;;;2.10;;
6832;SDS011;3454;42.654;23.378;2023-05-14T02:57:01;2.73;;;1.70;;
6832;SDS011;3454;42.654;23.378;2023-05-14T02:59:27;4.00;;;1.90;;
6832;SDS011;3454;42.654;23.378;2023-05-14T03:01:52;2.83;;;2.00;;
6832;SDS011;3454;42.654;23.378;2023-05-14T03:04:17;3.47;;;2.00;;
6832;SDS011;3454;42.654;23.378;2023-05-14T03:06:43;2.27;;;2.03;;
6832;SDS011;3454;42.654;23.378;2023-05-14T03:09:08;4.27;;;2.17;;
6832;SDS011;3454;42.654;23.378;2023-05-14T03:11:34;2.50;;;2.17;;
6832;SDS011;3454;42.654;23.378;2023-05-14T03:13:59;2.13;;;1.80;;
6832;SDS011;3454;42.654;23.378;2023-05-14T03:16:25;4.83;;;1.97;;
6832;SDS011;3454;42.654;23.378;2023-05-14T03:18:51;4.47;;;2.03;;
6832;SDS011;3454;42.654;23.378;2023-05-14T03:21:16;2.67;;;2.47;;
6832;SDS011;3454;42.654;23.378;2023-05-14T03:23:42;3.80;;;2.30;;
6832;SDS011;3454;42.654;23.378;2023-05-14T03:26:07;3.13;;;2.17;;
6832;SDS011;3454;42.654;23.378;2023-05-14T03:28:32;3.33;;;1.97;;
6832;SDS011;3454;42.654;23.378;2023-05-14T03:30:58;3.27;;;2.20;;
6832;SDS011;3454;42.654;23.378;2023-05-14T03:33:24;4.20;;;2.37;;
6832;SDS011;3454;42.654;23.378;2023-05-14T03:35:49;2.90;;;2.53;;
6832;SDS011;3454;42.654;23.378;2023-05-14T03:38:16;2.17;;;1.87;;
6832;SDS011;3454;42.654;23.378;2023-05-14T03:40:42;1.97;;;1.87;;
6832;SDS011;3454;42.654;23.378;2023-05-14T03:43:08;2.30;;;2.03;;
6832;SDS011;3454;42.654;23.378;2023-05-14T03:45:35;2.47;;;2.13;;
6832;SDS011;3454;42.654;23.378;2023-05-14T03:48:00;3.83;;;2.13;;
6832;SDS011;3454;42.654;23.378;2023-05-14T03:50:26;2.97;;;2.43;;
6832;SDS011;3454;42.654;23.378;2023-05-14T03:52:51;2.47;;;2.10;;
6832;SDS011;3454;42.654;23.378;2023-05-14T03:55:18;3.20;;;1.93;;
6832;SDS011;3454;42.654;23.378;2023-05-14T03:57:44;2.30;;;2.10;;
6832;SDS011;3454;42.654;23.378;2023-05-14T04:00:10;2.83;;;2.13;;
6832;SDS011;3454;42.654;23.378;2023-05-14T04:02:35;2.73;;;2.13;;
6832;SDS011;3454;42.654;23.378;2023-05-14T04:05:01;2.60;;;1.90;;
6832;SDS011;3454;42.654;23.378;2023-05-14T04:07:26;3.37;;;2.00;;
6832;SDS011;3454;42.654;23.378;2023-05-14T04:09:52;4.13;;;2.03;;
6832;SDS011;3454;42.654;23.378;2023-05-14T04:12:17;2.67;;;2.27;;
6832;SDS011;3454;42.654;23.378;2023-05-14T04:14:42;8.50;;;2.43;;
6832;SDS011;3454;42.654;23.378;2023-05-14T04:17:08;2.50;;;2.13;;
6832;SDS011;3454;42.654;23.378;2023-05-14T04:19:33;2.17;;;1.97;;
6832;SDS011;3454;42.654;23.378;2023-05-14T04:21:58;7.17;;;2.47;;
6832;SDS011;3454;42.654;23.378;2023-05-14T04:24:24;5.37;;;2.20;;
6832;SDS011;3454;42.654;23.378;2023-05-14T04:26:49;6.17;;;3.07;;
6832;SDS011;3454;42.654;23.378;2023-05-14T04:29:15;4.13;;;2.43;;
6832;SDS011;3454;42.654;23.378;2023-05-14T04:31:40;3.13;;;2.30;;
6832;SDS011;3454;42.654;23.378;2023-05-14T04:34:07;2.93;;;2.20;;
6832;SDS011;3454;42.654;23.378;2023-05-14T04:36:32;4.07;;;2.30;;
6832;SDS011;3454;42.654;23.378;2023-05-14T04:38:58;2.70;;;2.00;;
6832;SDS011;3454;42.654;23.378;2023-05-14T04:41:23;3.87;;;2.27;;
6832;SDS011;3454;42.654;23.378;2023-05-14T04:43:49;3.60;;;2.60;;
6832;SDS011;3454;42.654;23.378;2023-05-14T04:46:14;6.33;;;2.53;;
6832;SDS011;3454;42.654;23.378;2023-05-14T04:48:40;4.73;;;2.70;;
6832;SDS011;3454;42.654;23.378;2023-05-14T04:51:06;3.30;;;2.30;;
6832;SDS011;3454;42.654;23.378;2023-05-14T04:53:31;3.97;;;2.50;;
6832;SDS011;3454;42.654;23.378;2023-05-14T04:55:57;2.17;;;2.00;;
6832;SDS011;3454;42.654;23.378;2023-05-14T04:58:22;2.30;;;2.10;;
6832;SDS011;3454;42.654;23.378;2023-05-14T05:00:48;3.07;;;2.70;;
6832;SDS011;3454;42.654;23.378;2023-05-14T05:03:14;2.50;;;2.23;;
6832;SDS011;3454;42.654;23.378;2023-05-14T05:05:39;3.63;;;2.23;;
6832;SDS011;3454;42.654;23.378;2023-05-14T05:08:04;4.37;;;2.80;;
6832;SDS011;3454;42.654;23.378;2023-05-14T05:10:30;2.57;;;2.37;;
6832;SDS011;3454;42.654;23.378;2023-05-14T05:12:55;6.70;;;2.77;;
6832;SDS011;3454;42.654;23.378;2023-05-14T05:15:21;3.03;;;2.30;;
6832;SDS011;3454;42.654;23.378;2023-05-14T05:17:46;2.70;;;2.50;;
6832;SDS011;3454;42.654;23.378;2023-05-14T05:20:12;3.67;;;2.50;;
6832;SDS011;3454;42.654;23.378;2023-05-14T05:22:38;2.63;;;2.40;;
6832;SDS011;3454;42.654;23.378;2023-05-14T05:25:11;3.77;;;3.37;;
6832;SDS011;3454;42.654;23.378;2023-05-14T05:27:36;3.60;;;2.53;;
6832;SDS011;3454;42.654;23.378;2023-05-14T05:30:03;4.67;;;3.20;;
6832;SDS011;3454;42.654;23.378;2023-05-14T05:32:30;4.07;;;2.77;;
6832;SDS011;3454;42.654;23.378;2023-05-14T05:34:55;4.30;;;2.60;;
6832;SDS011;3454;42.654;23.378;2023-05-14T05:37:21;2.57;;;2.37;;
6832;SDS011;3454;42.654;23.378;2023-05-14T05:39:47;5.33;;;2.77;;
6832;SDS011;3454;42.654;23.378;2023-05-14T05:42:13;6.43;;;2.90;;
6832;SDS011;3454;42.654;23.378;2023-05-14T05:44:38;4.70;;;2.73;;
6832;SDS011;3454;42.654;23.378;2023-05-14T05:47:04;6.00;;;2.90;;
6832;SDS011;3454;42.654;23.378;2023-05-14T05:49:30;5.47;;;2.77;;
6832;SDS011;3454;42.654;23.378;2023-05-14T05:51:55;5.23;;;3.43;;
6832;SDS011;3454;42.654;23.378;2023-05-14T05:54:22;7.33;;;3.00;;
6832;SDS011;3454;42.654;23.378;2023-05-14T05:56:48;5.10;;;3.33;;
6832;SDS011;3454;42.654;23.378;2023-05-14T05:59:14;5.47;;;3.20;;
6832;SDS011;3454;42.654;23.378;2023-05-14T06:01:39;3.27;;;2.67;;
6832;SDS011;3454;42.654;23.378;2023-05-14T06:04:07;6.67;;;3.30;;
6832;SDS011;3454;42.654;23.378;2023-05-14T06:06:33;4.43;;;2.77;;
6832;SDS011;3454;42.654;23.378;2023-05-14T06:08:59;5.17;;;3.10;;
6832;SDS011;3454;42.654;23.378;2023-05-14T06:11:26;4.47;;;3.27;;
6832;SDS011;3454;42.654;23.378;2023-05-14T06:13:51;6.80;;;4.23;;
6832;SDS011;3454;42.654;23.378;2023-05-14T06:16:17;5.23;;;3.20;;
6832;SDS011;3454;42.654;23.378;2023-05-14T06:18:42;4.73;;;3.30;;
6832;SDS011;3454;42.654;23.378;2023-05-14T06:21:08;5.00;;;3.07;;
6832;SDS011;3454;42.654;23.378;2023-05-14T06:23:33;4.53;;;3.20;;
6832;SDS011;3454;42.654;23.378;2023-05-14T06:25:58;3.57;;;3.17;;
6832;SDS011;3454;42.654;23.378;2023-05-14T06:28:24;6.80;;;4.03;;
6832;SDS011;3454;42.654;23.378;2023-05-14T06:30:50;7.37;;;3.50;;
6832;SDS011;3454;42.654;23.378;2023-05-14T06:33:15;7.33;;;3.73;;
6832;SDS011;3454;42.654;23.378;2023-05-14T06:35:41;5.90;;;3.87;;
6832;SDS011;3454;42.654;23.378;2023-05-14T06:38:06;8.37;;;4.03;;
6832;SDS011;3454;42.654;23.378;2023-05-14T06:40:32;5.27;;;3.73;;
6832;SDS011;3454;42.654;23.378;2023-05-14T06:42:57;5.67;;;4.27;;
6832;SDS011;3454;42.654;23.378;2023-05-14T06:45:22;4.90;;;3.90;;
6832;SDS011;3454;42.654;23.378;2023-05-14T06:47:48;6.90;;;4.30;;
6832;SDS011;3454;42.654;23.378;2023-05-14T06:50:13;7.67;;;5.17;;
6832;SDS011;3454;42.654;23.378;2023-05-14T06:52:38;7.03;;;4.30;;
6832;SDS011;3454;42.654;23.378;2023-05-14T06:55:04;6.07;;;4.17;;
6832;SDS011;3454;42.654;23.378;2023-05-14T06:57:37;5.63;;;4.13;;
6832;SDS011;3454;42.654;23.378;2023-05-14T07:00:03;8.57;;;4.50;;
6832;SDS011;3454;42.654;23.378;2023-05-14T07:02:28;7.83;;;5.30;;
6832;SDS011;3454;42.654;23.378;2023-05-14T07:04:54;6.43;;;4.90;;
6832;SDS011;3454;42.654;23.378;2023-05-14T07:07:20;8.07;;;5.40;;
6832;SDS011;3454;42.654;23.378;2023-05-14T07:09:45;7.63;;;5.07;;
6832;SDS011;3454;42.654;23.378;2023-05-14T07:12:11;8.87;;;5.17;;
6832;SDS011;3454;42.654;23.378;2023-05-14T07:14:37;7.17;;;4.70;;
6832;SDS011;3454;42.654;23.378;2023-05-14T07:17:02;6.60;;;4.20;;
6832;SDS011;3454;42.654;23.378;2023-05-14T07:19:28;5.53;;;4.53;;
6832;SDS011;3454;42.654;23.378;2023-05-14T07:21:54;7.53;;;4.67;;
6832;SDS011;3454;42.654;23.378;2023-05-14T07:24:21;7.17;;;4.07;;
6832;SDS011;3454;42.654;23.378;2023-05-14T07:26:47;5.87;;;4.23;;
6832;SDS011;3454;42.654;23.378;2023-05-14T07:29:13;12.50;;;6.33;;
6832;SDS011;3454;42.654;23.378;2023-05-14T07:31:38;7.33;;;4.53;;
6832;SDS011;3454;42.654;23.378;2023-05-14T07:34:04;5.37;;;3.87;;
6832;SDS011;3454;42.654;23.378;2023-05-14T07:36:29;6.27;;;4.50;;
6832;SDS011;3454;42.654;23.378;2023-05-14T07:38:55;8.83;;;3.67;;
6832;SDS011;3454;42.654;23.378;2023-05-14T07:41:21;4.73;;;4.03;;
6832;SDS011;3454;42.654;23.378;2023-05-14T07:43:46;8.27;;;4.60;;
6832;SDS011;3454;42.654;23.378;2023-05-14T07:46:11;5.43;;;4.23;;
6832;SDS011;3454;42.654;23.378;2023-05-14T07:48:37;6.10;;;4.40;;
6832;SDS011;3454;42.654;23.378;2023-05-14T07:51:02;7.20;;;4.40;;
6832;SDS011;3454;42.654;23.378;2023-05-14T07:53:28;7.17;;;4.43;;
6832;SDS011;3454;42.654;23.378;2023-05-14T07:55:53;12.83;;;4.50;;
6832;SDS011;3454;42.654;23.378;2023-05-14T07:58:19;9.50;;;4.43;;
6832;SDS011;3454;42.654;23.378;2023-05-14T08:00:44;11.03;;;5.00;;
6832;SDS011;3454;42.654;23.378;2023-05-14T08:03:09;7.50;;;4.20;;
6832;SDS011;3454;42.654;23.378;2023-05-14T08:05:35;7.23;;;3.80;;
6832;SDS011;3454;42.654;23.378;2023-05-14T08:08:00;6.37;;;5.13;;
6832;SDS011;3454;42.654;23.378;2023-05-14T08:10:26;7.50;;;4.20;;
6832;SDS011;3454;42.654;23.378;2023-05-14T08:12:52;13.90;;;4.57;;
6832;SDS011;3454;42.654;23.378;2023-05-14T08:15:17;6.37;;;4.60;;
6832;SDS011;3454;42.654;23.378;2023-05-14T08:17:42;8.00;;;4.97;;
6832;SDS011;3454;42.654;23.378;2023-05-14T08:20:08;7.63;;;4.97;;
6832;SDS011;3454;42.654;23.378;2023-05-14T08:22:34;8.80;;;4.53;;
6832;SDS011;3454;42.654;23.378;2023-05-14T08:24:59;12.70;;;5.80;;
6832;SDS011;3454;42.654;23.378;2023-05-14T08:27:27;8.53;;;5.80;;
6832;SDS011;3454;42.654;23.378;2023-05-14T08:29:52;8.20;;;4.67;;
6832;SDS011;3454;42.654;23.378;2023-05-14T08:32:17;10.83;;;4.50;;
6832;SDS011;3454;42.654;23.378;2023-05-14T08:34:43;6.33;;;4.53;;
6832;SDS011;3454;42.654;23.378;2023-05-14T08:37:08;9.33;;;5.07;;
6832;SDS011;3454;42.654;23.378;2023-05-14T08:39:34;6.93;;;4.67;;
6832;SDS011;3454;42.654;23.378;2023-05-14T08:41:59;5.13;;;3.97;;
6832;SDS011;3454;42.654;23.378;2023-05-14T08:44:35;7.57;;;4.43;;
6832;SDS011;3454;42.654;23.378;2023-05-14T08:47:04;5.97;;;4.63;;
6832;SDS011;3454;42.654;23.378;2023-05-14T08:52:09;5.10;;;3.90;;
6832;SDS011;3454;42.654;23.378;2023-05-14T08:54:35;5.03;;;3.83;;
6832;SDS011;3454;42.654;23.378;2023-05-14T08:57:01;5.90;;;4.47;;
6832;SDS011;3454;42.654;23.378;2023-05-14T08:59:28;4.87;;;4.10;;
6832;SDS011;3454;42.654;23.378;2023-05-14T09:01:53;10.07;;;4.97;;
6832;SDS011;3454;42.654;23.378;2023-05-14T09:04:23;12.60;;;5.17;;
6832;SDS011;3454;42.654;23.378;2023-05-14T09:06:50;9.07;;;5.10;;
6832;SDS011;3454;42.654;23.378;2023-05-14T09:09:17;13.13;;;5.83;;
6832;SDS011;3454;42.654;23.378;2023-05-14T09:11:46;8.13;;;4.63;;
6832;SDS011;3454;42.654;23.378;2023-05-14T09:14:15;8.90;;;4.63;;
6832;SDS011;3454;42.654;23.378;2023-05-14T09:16:43;6.13;;;4.43;;
6832;SDS011;3454;42.654;23.378;2023-05-14T09:19:10;5.37;;;4.47;;
6832;SDS011;3454;42.654;23.378;2023-05-14T09:21:36;6.27;;;4.10;;
6832;SDS011;3454;42.654;23.378;2023-05-14T09:24:02;5.70;;;4.67;;
6832;SDS011;3454;42.654;23.378;2023-05-14T09:26:30;9.00;;;4.23;;
6832;SDS011;3454;42.654;23.378;2023-05-14T09:28:57;5.33;;;4.27;;
6832;SDS011;3454;42.654;23.378;2023-05-14T09:31:30;7.20;;;5.63;;
6832;SDS011;3454;42.654;23.378;2023-05-14T09:33:57;7.70;;;5.67;;
6832;SDS011;3454;42.654;23.378;2023-05-14T09:36:23;6.10;;;5.10;;
6832;SDS011;3454;42.654;23.378;2023-05-14T09:38:52;10.27;;;5.10;;
6832;SDS011;3454;42.654;23.378;2023-05-14T09:41:37;5.30;;;4.70;;
6832;SDS011;3454;42.654;23.378;2023-05-14T09:44:03;5.63;;;4.57;;
6832;SDS011;3454;42.654;23.378;2023-05-14T09:46:28;6.47;;;4.80;;
6832;SDS011;3454;42.654;23.378;2023-05-14T09:48:55;5.67;;;4.33;;
6832;SDS011;3454;42.654;23.378;2023-05-14T09:51:21;5.93;;;5.10;;
6832;SDS011;3454;42.654;23.378;2023-05-14T09:53:46;8.83;;;4.80;;
6832;SDS011;3454;42.654;23.378;2023-05-14T09:56:14;5.27;;;4.77;;
6832;SDS011;3454;42.654;23.378;2023-05-14T09:58:40;7.50;;;5.50;;
6832;SDS011;3454;42.654;23.378;2023-05-14T10:01:06;8.57;;;5.50;;
6832;SDS011;3454;42.654;23.378;2023-05-14T10:03:32;7.47;;;5.03;;
6832;SDS011;3454;42.654;23.378;2023-05-14T10:05:59;9.63;;;5.10;;
6832;SDS011;3454;42.654;23.378;2023-05-14T10:08:32;5.23;;;4.30;;
6832;SDS011;3454;42.654;23.378;2023-05-14T10:11:01;4.93;;;4.43;;
6832;SDS011;3454;42.654;23.378;2023-05-14T10:13:34;6.97;;;4.90;;
6832;SDS011;3454;42.654;23.378;2023-05-14T10:18:42;8.27;;;5.43;;
6832;SDS011;3454;42.654;23.378;2023-05-14T10:21:13;6.80;;;4.87;;
6832;SDS011;3454;42.654;23.378;2023-05-14T10:23:40;5.23;;;4.70;;
6832;SDS011;3454;42.654;23.378;2023-05-14T10:26:07;8.90;;;4.90;;
6832;SDS011;3454;42.654;23.378;2023-05-14T10:28:33;9.00;;;5.13;;
6832;SDS011;3454;42.654;23.378;2023-05-14T10:31:00;8.20;;;5.33;;
6832;SDS011;3454;42.654;23.378;2023-05-14T10:33:25;20.10;;;14.20;;
6832;SDS011;3454;42.654;23.378;2023-05-14T10:38:16;5.90;;;4.73;;
6832;SDS011;3454;42.654;23.378;2023-05-14T10:40:47;6.80;;;5.13;;
6832;SDS011;3454;42.654;23.378;2023-05-14T10:43:13;7.87;;;5.37;;
6832;SDS011;3454;42.654;23.378;2023-05-14T10:45:42;5.20;;;4.70;;
6832;SDS011;3454;42.654;23.378;2023-05-14T10:48:09;5.87;;;4.50;;
6832;SDS011;3454;42.654;23.378;2023-05-14T10:50:34;6.03;;;5.33;;
6832;SDS011;3454;42.654;23.378;2023-05-14T10:53:00;7.37;;;5.07;;
6832;SDS011;3454;42.654;23.378;2023-05-14T10:55:26;5.70;;;5.10;;
6832;SDS011;3454;42.654;23.378;2023-05-14T10:57:52;6.63;;;5.30;;
6832;SDS011;3454;42.654;23.378;2023-05-14T11:00:17;7.20;;;4.97;;
6832;SDS011;3454;42.654;23.378;2023-05-14T11:02:43;6.03;;;5.20;;
6832;SDS011;3454;42.654;23.378;2023-05-14T11:05:12;6.50;;;5.50;;
6832;SDS011;3454;42.654;23.378;2023-05-14T11:07:41;7.80;;;5.40;;
6832;SDS011;3454;42.654;23.378;2023-05-14T11:10:09;5.50;;;5.00;;
6832;SDS011;3454;42.654;23.378;2023-05-14T11:12:37;5.03;;;4.40;;
6832;SDS011;3454;42.654;23.378;2023-05-14T11:15:05;5.23;;;4.20;;
6832;SDS011;3454;42.654;23.378;2023-05-14T11:17:35;5.17;;;4.50;;
6832;SDS011;3454;42.654;23.378;2023-05-14T11:20:02;6.67;;;4.97;;
6832;SDS011;3454;42.654;23.378;2023-05-14T11:22:29;7.80;;;4.97;;
6832;SDS011;3454;42.654;23.378;2023-05-14T11:24:54;7.47;;;4.87;;
6832;SDS011;3454;42.654;23.378;2023-05-14T11:27:26;5.50;;;4.97;;
6832;SDS011;3454;42.654;23.378;2023-05-14T11:29:52;9.97;;;5.37;;
6832;SDS011;3454;42.654;23.378;2023-05-14T11:32:19;7.20;;;5.30;;
6832;SDS011;3454;42.654;23.378;2023-05-14T11:34:44;6.53;;;5.33;;
6832;SDS011;3454;42.654;23.378;2023-05-14T11:37:11;11.50;;;6.47;;
6832;SDS011;3454;42.654;23.378;2023-05-14T11:39:38;9.90;;;8.10;;
6832;SDS011;3454;42.654;23.378;2023-05-14T11:42:10;7.83;;;6.50;;
6832;SDS011;3454;42.654;23.378;2023-05-14T11:44:37;6.57;;;5.97;;
6832;SDS011;3454;42.654;23.378;2023-05-14T11:47:03;9.13;;;7.00;;
6832;SDS011;3454;42.654;23.378;2023-05-14T11:49:29;7.87;;;7.07;;
6832;SDS011;3454;42.654;23.378;2023-05-14T11:52:00;8.40;;;6.70;;
6832;SDS011;3454;42.654;23.378;2023-05-14T11:54:29;9.60;;;6.60;;
6832;SDS011;3454;42.654;23.378;2023-05-14T11:56:56;8.30;;;5.83;;
6832;SDS011;3454;42.654;23.378;2023-05-14T11:59:23;7.70;;;6.50;;
6832;SDS011;3454;42.654;23.378;2023-05-14T12:01:51;7.73;;;5.47;;
6832;SDS011;3454;42.654;23.378;2023-05-14T12:04:19;7.83;;;5.63;;
6832;SDS011;3454;42.654;23.378;2023-05-14T12:06:49;5.37;;;4.80;;
6832;SDS011;3454;42.654;23.378;2023-05-14T12:09:18;7.10;;;5.80;;
6832;SDS011;3454;42.654;23.378;2023-05-14T12:11:44;5.60;;;5.03;;
6832;SDS011;3454;42.654;23.378;2023-05-14T12:14:13;5.90;;;5.30;;
6832;SDS011;3454;42.654;23.378;2023-05-14T12:16:40;8.47;;;5.10;;
6832;SDS011;3454;42.654;23.378;2023-05-14T12:19:09;5.40;;;4.90;;
6832;SDS011;3454;42.654;23.378;2023-05-14T12:21:35;5.87;;;5.00;;
6832;SDS011;3454;42.654;23.378;2023-05-14T12:24:02;7.13;;;4.97;;
6832;SDS011;3454;42.654;23.378;2023-05-14T12:26:30;5.10;;;4.60;;
6832;SDS011;3454;42.654;23.378;2023-05-14T12:29:00;6.00;;;5.10;;
6832;SDS011;3454;42.654;23.378;2023-05-14T12:31:30;6.37;;;5.43;;
6832;SDS011;3454;42.654;23.378;2023-05-14T12:34:00;6.43;;;5.83;;
6832;SDS011;3454;42.654;23.378;2023-05-14T12:36:27;7.33;;;5.80;;
6832;SDS011;3454;42.654;23.378;2023-05-14T12:38:59;6.37;;;5.60;;
6832;SDS011;3454;42.654;23.378;2023-05-14T12:41:26;5.63;;;5.13;;
6832;SDS011;3454;42.654;23.378;2023-05-14T12:43:52;6.60;;;5.27;;
6832;SDS011;3454;42.654;23.378;2023-05-14T12:46:17;5.83;;;5.23;;
6832;SDS011;3454;42.654;23.378;2023-05-14T12:48:43;7.00;;;5.80;;
6832;SDS011;3454;42.654;23.378;2023-05-14T12:51:09;9.03;;;6.37;;
6832;SDS011;3454;42.654;23.378;2023-05-14T12:53:34;8.43;;;6.03;;
6832;SDS011;3454;42.654;23.378;2023-05-14T12:56:00;7.13;;;6.37;;
6832;SDS011;3454;42.654;23.378;2023-05-14T12:58:25;6.27;;;5.63;;
6832;SDS011;3454;42.654;23.378;2023-05-14T13:00:51;7.13;;;6.07;;
6832;SDS011;3454;42.654;23.378;2023-05-14T13:03:23;6.63;;;6.03;;
6832;SDS011;3454;42.654;23.378;2023-05-14T13:05:52;7.17;;;6.47;;
6832;SDS011;3454;42.654;23.378;2023-05-14T13:08:20;7.27;;;6.10;;
6832;SDS011;3454;42.654;23.378;2023-05-14T13:10:48;7.00;;;6.30;;
6832;SDS011;3454;42.654;23.378;2023-05-14T13:13:14;6.20;;;5.60;;
6832;SDS011;3454;42.654;23.378;2023-05-14T13:15:40;8.43;;;7.23;;
6832;SDS011;3454;42.654;23.378;2023-05-14T13:18:06;8.60;;;6.93;;
6832;SDS011;3454;42.654;23.378;2023-05-14T13:20:32;7.00;;;6.00;;
6832;SDS011;3454;42.654;23.378;2023-05-14T13:22:57;7.50;;;6.40;;
6832;SDS011;3454;42.654;23.378;2023-05-14T13:25:23;8.80;;;6.97;;
6832;SDS011;3454;42.654;23.378;2023-05-14T13:27:48;8.10;;;6.83;;
6832;SDS011;3454;42.654;23.378;2023-05-14T13:30:17;9.13;;;7.47;;
6832;SDS011;3454;42.654;23.378;2023-05-14T13:32:43;8.37;;;7.00;;
6832;SDS011;3454;42.654;23.378;2023-05-14T13:35:09;8.27;;;7.37;;
6832;SDS011;3454;42.654;23.378;2023-05-14T13:37:35;7.93;;;6.80;;
6832;SDS011;3454;42.654;23.378;2023-05-14T13:40:01;9.50;;;7.97;;
6832;SDS011;3454;42.654;23.378;2023-05-14T13:42:28;8.37;;;7.37;;
6832;SDS011;3454;42.654;23.378;2023-05-14T13:44:54;9.10;;;7.07;;
6832;SDS011;3454;42.654;23.378;2023-05-14T13:47:20;10.27;;;7.93;;
6832;SDS011;3454;42.654;23.378;2023-05-14T13:49:46;13.73;;;8.60;;
6832;SDS011;3454;42.654;23.378;2023-05-14T13:52:11;10.00;;;8.20;;
6832;SDS011;3454;42.654;23.378;2023-05-14T13:54:36;9.67;;;7.77;;
6832;SDS011;3454;42.654;23.378;2023-05-14T13:57:02;9.23;;;7.50;;
6832;SDS011;3454;42.654;23.378;2023-05-14T13:59:27;9.97;;;8.17;;
6832;SDS011;3454;42.654;23.378;2023-05-14T14:02:09;9.17;;;8.10;;
6832;SDS011;3454;42.654;23.378;2023-05-14T14:04:35;9.47;;;7.83;;
6832;SDS011;3454;42.654;23.378;2023-05-14T14:07:01;9.07;;;7.60;;
6832;SDS011;3454;42.654;23.378;2023-05-14T14:09:26;9.53;;;8.47;;
6832;SDS011;3454;42.654;23.378;2023-05-14T14:11:52;11.10;;;8.97;;
6832;SDS011;3454;42.654;23.378;2023-05-14T14:14:17;10.37;;;8.40;;
6832;SDS011;3454;42.654;23.378;2023-05-14T14:16:43;9.87;;;8.83;;
6832;SDS011;3454;42.654;23.378;2023-05-14T14:19:08;9.73;;;8.60;;
6832;SDS011;3454;42.654;23.378;2023-05-14T14:21:34;10.07;;;8.47;;
6832;SDS011;3454;42.654;23.378;2023-05-14T14:24:03;9.57;;;8.57;;
6832;SDS011;3454;42.654;23.378;2023-05-14T14:26:28;9.93;;;8.57;;
6832;SDS011;3454;42.654;23.378;2023-05-14T14:28:54;12.87;;;9.13;;
6832;SDS011;3454;42.654;23.378;2023-05-14T14:31:19;11.00;;;8.57;;
6832;SDS011;3454;42.654;23.378;2023-05-14T14:33:45;11.73;;;9.13;;
6832;SDS011;3454;42.654;23.378;2023-05-14T14:36:11;12.37;;;9.47;;
6832;SDS011;3454;42.654;23.378;2023-05-14T14:38:36;12.50;;;9.00;;
6832;SDS011;3454;42.654;23.378;2023-05-14T14:41:03;23.57;;;18.10;;
6832;SDS011;3454;42.654;23.378;2023-05-14T14:43:31;11.40;;;9.53;;
6832;SDS011;3454;42.654;23.378;2023-05-14T14:45:58;13.60;;;10.17;;
6832;SDS011;3454;42.654;23.378;2023-05-14T14:50:50;10.50;;;8.67;;
6832;SDS011;3454;42.654;23.378;2023-05-14T14:53:17;10.60;;;9.00;;
6832;SDS011;3454;42.654;23.378;2023-05-14T14:55:43;12.93;;;9.83;;
6832;SDS011;3454;42.654;23.378;2023-05-14T14:58:09;19.77;;;13.87;;
6832;SDS011;3454;42.654;23.378;2023-05-14T15:00:35;13.53;;;10.27;;
6832;SDS011;3454;42.654;23.378;2023-05-14T15:03:00;11.53;;;9.67;;
6832;SDS011;3454;42.654;23.378;2023-05-14T15:05:25;11.73;;;10.00;;
6832;SDS011;3454;42.654;23.378;2023-05-14T15:07:51;11.60;;;9.80;;